Time;durP1;ratioP1;P1;durP2;ratioP2;P2;SDS_P1;SDS_P2;PMS_P1;PMS_P2;Temp;Humidity;BMP_temperature;BMP_pressure;BME280_temperature;BME280_humidity;BME280_pressure;Samples;Min_cycle;Max_cycle;Signal;HPM_P1;HPM_P2
2020/12/08 00:00:16;;;;;;;;;;;;;;;-0.55;100.00;94906.81;5033248;28;19968;-48
2020/12/08 00:02:43;;;;;;;;;;;;;;;-0.53;100.00;94910.13;4998440;28;20390;-49
2020/12/08 00:05:10;;;;;;;;;;;;;;;-0.57;100.00;94913.88;5033584;28;19925;-48
2020/12/08 00:07:37;;;;;;;;;;;;;;;-0.39;100.00;94909.06;5000455;28;19951;-49
2020/12/08 00:10:04;;;;;;;;;;;;;;;-0.29;100.00;94907.44;5022396;28;19926;-47
2020/12/08 00:12:31;;;;;;;;;;;;;;;-0.19;100.00;94902.38;4999509;28;20516;-52
2020/12/08 00:14:59;;;;;;;;;;;;;;;-0.16;100.00;94907.31;5031727;28;19936;-47
2020/12/08 00:17:26;;;;;;;;;;;;;;;-0.09;100.00;94905.91;5005835;28;20306;-50
2020/12/08 00:19:53;;;;;;;;;;;;;;;-0.16;100.00;94895.19;5026993;28;19972;-48
2020/12/08 00:22:20;;;;;;;;;;;;;;;-0.18;100.00;94896.25;4986400;28;20327;-48
2020/12/08 00:24:46;;;;;;;;;;;;;;;-0.11;100.00;94900.84;5041239;28;19932;-47
2020/12/08 00:27:13;;;;;;;;;;;;;;;-0.11;100.00;94902.59;5000266;28;19991;-49
2020/12/08 00:29:40;;;;;;;;;;;;;;;-0.14;100.00;94905.44;5027704;28;19964;-48
2020/12/08 00:32:07;;;;;;;;;;;;;;;-0.16;100.00;94897.78;4996296;28;20023;-52
2020/12/08 00:34:34;;;;;;;;;;;;;;;-0.05;100.00;94899.53;5033418;28;19933;-51
2020/12/08 00:37:01;;;;;;;;;;;;;;;-0.15;100.00;94908.97;5032396;28;19929;-54
2020/12/08 00:39:28;;;;;;;;;;;;;;;-0.12;100.00;94908.72;4985992;28;20016;-48
2020/12/08 00:41:55;;;;;;;;;;;;;;;-0.06;100.00;94910.84;5043956;28;19983;-48
2020/12/08 00:44:22;;;;;;;;;;;;;;;-0.08;100.00;94917.91;5010115;28;19925;-50
2020/12/08 00:46:49;;;;;;;;;;;;;;;-0.01;100.00;94925.09;5048903;28;19933;-51
2020/12/08 00:49:17;;;;;;;;;;;;;;;-0.05;100.00;94921.09;5024717;28;19929;-47
2020/12/08 00:51:44;;;;;;;;;;;;;;;-0.20;100.00;94921.47;5026940;28;20020;-52
2020/12/08 00:54:13;;;;;;;;;;;;;;;-0.22;100.00;94916.38;5006127;28;19933;-47
2020/12/08 00:56:40;;;;;;;;;;;;;;;-0.13;100.00;94922.63;5051541;28;20339;-49
2020/12/08 00:59:13;;;;;;;;;;;;;;;-0.07;100.00;94922.16;5014053;28;19925;-49
2020/12/08 01:01:45;;;;;;;;;;;;;;;0.00;100.00;94918.16;5039313;28;19929;-50
2020/12/08 01:04:15;;;;;;;;;;;;;;;0.14;100.00;94915.31;5013700;28;20460;-48
2020/12/08 01:06:44;;;;;;;;;;;;;;;-0.02;100.00;94920.03;5048791;28;20410;-53
2020/12/08 01:09:11;;;;;;;;;;;;;;;0.07;100.00;94913.31;5003401;28;19932;-51
2020/12/08 01:11:41;;;;;;;;;;;;;;;0.06;100.00;94904.72;5030640;28;19924;-49
2020/12/08 01:14:10;;;;;;;;;;;;;;;0.03;100.00;94909.31;4992605;28;19925;-51
2020/12/08 01:16:37;;;;;;;;;;;;;;;-0.07;100.00;94912.63;5040577;28;20398;-50
2020/12/08 01:19:06;;;;;;;;;;;;;;;-0.03;100.00;94914.03;4986086;28;20407;-49
2020/12/08 01:21:33;;;;;;;;;;;;;;;-0.04;100.00;94914.13;5043448;28;19931;-49
2020/12/08 01:24:01;;;;;;;;;;;;;;;-0.06;100.00;94914.28;5020757;28;19936;-49
2020/12/08 01:26:28;;;;;;;;;;;;;;;0.04;100.00;94910.97;5036363;28;19940;-52
2020/12/08 01:29:00;;;;;;;;;;;;;;;-0.01;100.00;94908.72;5031275;28;19928;-50
2020/12/08 01:31:32;;;;;;;;;;;;;;;-0.27;100.00;94908.97;5009752;28;19925;-48
2020/12/08 01:34:04;;;;;;;;;;;;;;;-0.37;100.00;94914.97;5034626;28;19978;-48
2020/12/08 01:36:31;;;;;;;;;;;;;;;-0.34;100.00;94928.50;5003315;28;19956;-50
2020/12/08 01:38:58;;;;;;;;;;;;;;;-0.30;100.00;94918.75;5024124;28;20611;-49
2020/12/08 01:41:27;;;;;;;;;;;;;;;-0.19;100.00;94918.75;4999497;28;20010;-51
2020/12/08 01:43:54;;;;;;;;;;;;;;;-0.32;100.00;94916.25;5045956;28;19925;-53
2020/12/08 01:46:25;;;;;;;;;;;;;;;-0.35;100.00;94920.84;4989852;28;20420;-48
2020/12/08 01:48:52;;;;;;;;;;;;;;;-0.18;100.00;94911.78;5039753;28;20007;-48
2020/12/08 01:51:19;;;;;;;;;;;;;;;-0.16;100.00;94915.09;5008190;28;19925;-50
2020/12/08 01:53:47;;;;;;;;;;;;;;;-0.19;100.00;94913.56;5045246;28;19975;-50
2020/12/08 01:56:14;;;;;;;;;;;;;;;-0.06;100.00;94911.69;5008797;28;20436;-49
2020/12/08 01:58:46;;;;;;;;;;;;;;;-0.05;100.00;94904.72;5049815;28;19933;-49
2020/12/08 02:01:14;;;;;;;;;;;;;;;-0.15;100.00;94909.78;5019273;28;19925;-51
2020/12/08 02:03:42;;;;;;;;;;;;;;;-0.13;100.00;94915.69;5040829;28;20383;-48
2020/12/08 02:06:10;;;;;;;;;;;;;;;-0.04;100.00;94912.38;4991570;28;19924;-50
2020/12/08 02:08:37;;;;;;;;;;;;;;;-0.08;100.00;94910.97;5039533;28;20366;-49
2020/12/08 02:11:10;;;;;;;;;;;;;;;-0.22;100.00;94913.78;4988857;28;24513;-50
2020/12/08 02:13:37;;;;;;;;;;;;;;;-0.15;100.00;94908.97;5024858;28;19925;-47
2020/12/08 02:16:06;;;;;;;;;;;;;;;-0.21;100.00;94909.44;5003849;28;19972;-48
2020/12/08 02:18:33;;;;;;;;;;;;;;;-0.23;100.00;94914.75;5029916;28;19933;-51
2020/12/08 02:21:01;;;;;;;;;;;;;;;-0.31;100.00;94907.56;5042102;28;19932;-49
2020/12/08 02:23:34;;;;;;;;;;;;;;;-0.35;100.00;94913.06;5020591;28;19929;-47
2020/12/08 02:26:02;;;;;;;;;;;;;;;-0.27;100.00;94911.56;5047927;28;20391;-48
2020/12/08 02:28:30;;;;;;;;;;;;;;;-0.31;100.00;94917.91;5005683;28;19995;-51
2020/12/08 02:30:57;;;;;;;;;;;;;;;-0.34;100.00;94919.91;5057013;28;19925;-51
2020/12/08 02:33:26;;;;;;;;;;;;;;;-0.33;100.00;94919.78;5011498;28;20276;-53
2020/12/08 02:35:56;;;;;;;;;;;;;;;-0.26;100.00;94925.34;5038170;28;19924;-52
2020/12/08 02:38:24;;;;;;;;;;;;;;;-0.26;100.00;94917.56;4983042;28;19936;-51
2020/12/08 02:40:52;;;;;;;;;;;;;;;-0.51;100.00;94923.78;5041158;28;19965;-48
2020/12/08 02:43:19;;;;;;;;;;;;;;;-0.63;100.00;94922.09;5000148;28;19995;-50
2020/12/08 02:45:46;;;;;;;;;;;;;;;-0.58;100.00;94927.78;5049557;28;19928;-54
2020/12/08 02:48:13;;;;;;;;;;;;;;;-0.59;100.00;94934.69;5006364;28;20091;-52
2020/12/08 02:50:57;;;;;;;;;;;;;;;-0.64;100.00;94933.41;5037393;28;20395;-49
2020/12/08 02:53:25;;;;;;;;;;;;;;;-0.70;100.00;94939.03;5004022;28;19926;-53
2020/12/08 02:55:53;;;;;;;;;;;;;;;-0.53;100.00;94931.63;5043233;28;19981;-49
2020/12/08 02:58:22;;;;;;;;;;;;;;;-0.39;100.00;94928.03;4997376;28;19929;-49
2020/12/08 03:00:49;;;;;;;;;;;;;;;-0.38;100.00;94928.84;5043005;28;19987;-48
2020/12/08 03:03:18;;;;;;;;;;;;;;;-0.63;100.00;94922.09;5013162;28;20042;-48
2020/12/08 03:05:45;;;;;;;;;;;;;;;-0.74;100.00;94921.13;5038968;28;20595;-50
2020/12/08 03:08:13;;;;;;;;;;;;;;;-0.84;100.00;94912.41;4992760;28;19925;-47
2020/12/08 03:10:41;;;;;;;;;;;;;;;-0.86;100.00;94916.88;5049441;28;19925;-47
2020/12/08 03:13:08;;;;;;;;;;;;;;;-0.94;100.00;94916.59;5041032;28;19943;-56
2020/12/08 03:15:40;;;;;;;;;;;;;;;-0.94;100.00;94910.59;5038555;28;19925;-48
2020/12/08 03:18:08;;;;;;;;;;;;;;;-0.99;100.00;94918.72;5040867;28;19932;-51
2020/12/08 03:20:35;;;;;;;;;;;;;;;-0.95;100.00;94927.91;4999602;28;19975;-47
2020/12/08 03:23:02;;;;;;;;;;;;;;;-0.79;100.00;94914.63;5046506;28;19986;-50
2020/12/08 03:25:32;;;;;;;;;;;;;;;-0.86;100.00;94903.94;4979743;28;20039;-47
2020/12/08 03:27:59;;;;;;;;;;;;;;;-0.79;100.00;94905.13;5036642;28;20346;-49
2020/12/08 03:30:30;;;;;;;;;;;;;;;-1.02;100.00;94903.41;5008511;28;20103;-52
2020/12/08 03:32:59;;;;;;;;;;;;;;;-1.02;100.00;94908.59;5046473;28;19936;-53
2020/12/08 03:35:26;;;;;;;;;;;;;;;-1.00;100.00;94917.91;5022153;28;19932;-48
2020/12/08 03:37:55;;;;;;;;;;;;;;;-0.89;100.00;94905.94;5048796;28;19929;-48
2020/12/08 03:40:23;;;;;;;;;;;;;;;-0.87;100.00;94894.50;5003624;28;19980;-50
2020/12/08 03:42:50;;;;;;;;;;;;;;;-0.88;100.00;94894.63;5047135;28;19936;-48
2020/12/08 03:45:21;;;;;;;;;;;;;;;-0.79;100.00;94896.53;5005951;28;19925;-48
2020/12/08 03:47:56;;;;;;;;;;;;;;;-1.02;100.00;94896.47;5047380;28;19995;-50
2020/12/08 03:50:29;;;;;;;;;;;;;;;-1.01;100.00;94903.28;4998320;28;20035;-51
2020/12/08 03:52:57;;;;;;;;;;;;;;;-0.79;100.00;94893.94;5052744;28;20038;-49
2020/12/08 03:55:28;;;;;;;;;;;;;;;-0.91;100.00;94887.09;5008740;28;19928;-48
2020/12/08 03:57:57;;;;;;;;;;;;;;;-1.05;100.00;94891.53;5050832;28;19931;-49
2020/12/08 04:00:26;;;;;;;;;;;;;;;-1.16;100.00;94888.91;5008036;28;19933;-48
2020/12/08 04:02:54;;;;;;;;;;;;;;;-1.24;100.00;94888.63;5048847;28;20375;-50
2020/12/08 04:05:25;;;;;;;;;;;;;;;-1.20;100.00;94883.13;5011528;28;19925;-49
2020/12/08 04:07:52;;;;;;;;;;;;;;;-1.23;100.00;94882.53;5047570;28;19932;-53
2020/12/08 04:10:24;;;;;;;;;;;;;;;-1.35;100.00;94879.06;5022636;28;19979;-56
2020/12/08 04:12:53;;;;;;;;;;;;;;;-1.36;100.00;94889.53;5032570;28;19960;-53
2020/12/08 04:15:20;;;;;;;;;;;;;;;-1.29;100.00;94891.56;5041698;28;20419;-51
2020/12/08 04:17:47;;;;;;;;;;;;;;;-1.34;100.00;94893.66;5013677;28;20344;-47
2020/12/08 04:20:15;;;;;;;;;;;;;;;-1.45;100.00;94898.75;5048211;28;20402;-48
2020/12/08 04:22:42;;;;;;;;;;;;;;;-1.47;100.00;94895.47;5007138;28;19935;-50
2020/12/08 04:25:13;;;;;;;;;;;;;;;-1.50;100.00;94898.28;5045778;28;20345;-50
2020/12/08 04:27:40;;;;;;;;;;;;;;;-1.50;100.00;94903.44;4999094;28;20391;-50
2020/12/08 04:30:09;;;;;;;;;;;;;;;-1.53;100.00;94901.09;5057003;28;20015;-48
2020/12/08 04:32:40;;;;;;;;;;;;;;;-1.57;100.00;94905.66;5012250;28;19933;-49
2020/12/08 04:35:08;;;;;;;;;;;;;;;-1.56;100.00;94902.13;5036308;28;20280;-51
2020/12/08 04:37:34;;;;;;;;;;;;;;;-1.53;100.00;94901.09;4988172;28;20020;-51
2020/12/08 04:40:01;;;;;;;;;;;;;;;-1.54;100.00;94908.00;5016762;28;20000;-51
2020/12/08 04:42:28;;;;;;;;;;;;;;;-1.69;100.00;94909.09;5006617;28;20032;-50
2020/12/08 04:44:55;;;;;;;;;;;;;;;-1.85;100.00;94914.53;5026460;28;19929;-50
2020/12/08 04:47:22;;;;;;;;;;;;;;;-1.73;100.00;94915.41;4997017;28;19957;-52
2020/12/08 04:49:49;;;;;;;;;;;;;;;-1.63;100.00;94918.19;5031884;28;19925;-50
2020/12/08 04:52:17;;;;;;;;;;;;;;;-1.71;100.00;94916.16;4996228;28;19975;-47
2020/12/08 04:54:44;;;;;;;;;;;;;;;-1.82;100.00;94921.25;5036036;28;19925;-47
2020/12/08 04:59:50;;;;;;;;;;;;;;;-1.95;100.00;94924.69;5090962;27;19924;-47
2020/12/08 05:02:17;;;;;;;;;;;;;;;-1.79;100.00;94916.69;5071088;27;19925;-47
2020/12/08 05:04:43;;;;;;;;;;;;;;;-1.97;100.00;94923.13;5051608;28;19932;-52
2020/12/08 05:07:10;;;;;;;;;;;;;;;-1.73;100.00;94918.00;5065783;28;19925;-52
2020/12/08 05:09:43;;;;;;;;;;;;;;;-1.68;100.00;94916.75;5029062;28;19956;-48
2020/12/08 05:12:10;;;;;;;;;;;;;;;-1.63;100.00;94916.41;5075387;27;19970;-49
2020/12/08 05:14:41;;;;;;;;;;;;;;;-1.78;100.00;94915.75;5025024;28;20452;-47
2020/12/08 05:17:08;;;;;;;;;;;;;;;-1.64;100.00;94921.69;5062564;28;19990;-49
2020/12/08 05:19:35;;;;;;;;;;;;;;;-1.65;100.00;94920.03;5029136;28;19929;-47
2020/12/08 05:22:02;;;;;;;;;;;;;;;-1.63;100.00;94928.50;5074305;28;19924;-47
2020/12/08 05:24:30;;;;;;;;;;;;;;;-1.59;100.00;94933.34;5038241;27;19925;-51
2020/12/08 05:26:57;;;;;;;;;;;;;;;-1.61;100.00;94927.47;5063094;28;21884;-47
2020/12/08 05:29:24;;;;;;;;;;;;;;;-1.63;100.00;94921.59;5048182;28;19936;-50
2020/12/08 05:31:51;;;;;;;;;;;;;;;-1.72;100.00;94924.81;5081709;28;19924;-50
2020/12/08 05:34:19;;;;;;;;;;;;;;;-1.85;100.00;94927.44;5036967;28;20025;-51
2020/12/08 05:36:47;;;;;;;;;;;;;;;-1.85;100.00;94926.63;5078611;28;19931;-47
2020/12/08 05:39:16;;;;;;;;;;;;;;;-1.76;100.00;94919.03;5040311;28;20402;-49
2020/12/08 05:41:43;;;;;;;;;;;;;;;-1.76;100.00;94920.78;5074911;28;19933;-48
2020/12/08 05:44:10;;;;;;;;;;;;;;;-1.64;100.00;94919.13;5021984;28;19963;-49
2020/12/08 05:46:40;;;;;;;;;;;;;;;-1.64;100.00;94924.28;5058180;28;20310;-49
2020/12/08 05:49:07;;;;;;;;;;;;;;;-1.65;100.00;94925.19;5046546;28;21446;-48
2020/12/08 05:51:40;;;;;;;;;;;;;;;-1.88;100.00;94935.41;5025948;28;20003;-48
2020/12/08 05:54:06;;;;;;;;;;;;;;;-1.94;100.00;94935.81;5067789;28;20037;-47
2020/12/08 05:56:34;;;;;;;;;;;;;;;-2.04;100.00;94937.41;5026144;28;19931;-50
2020/12/08 05:59:00;;;;;;;;;;;;;;;-2.09;100.00;94949.81;5081350;28;20385;-50
2020/12/08 06:01:27;;;;;;;;;;;;;;;-2.20;100.00;94946.19;5047880;28;20023;-51
2020/12/08 06:04:02;;;;;;;;;;;;;;;-2.18;100.00;94944.31;5076265;28;19933;-47
2020/12/08 06:06:29;;;;;;;;;;;;;;;-2.20;100.00;94945.38;5029520;28;19925;-47
2020/12/08 06:08:57;;;;;;;;;;;;;;;-2.26;100.00;94941.47;5062843;28;20357;-47
2020/12/08 06:11:28;;;;;;;;;;;;;;;-2.36;100.00;94942.19;5020730;28;19928;-47
2020/12/08 06:13:55;;;;;;;;;;;;;;;-2.28;100.00;94953.63;5050864;28;20398;-47
2020/12/08 06:16:22;;;;;;;;;;;;;;;-2.26;100.00;94946.63;5027203;28;19931;-48
2020/12/08 06:18:49;;;;;;;;;;;;;;;-2.18;100.00;94949.50;5053121;28;20457;-49
2020/12/08 06:21:17;;;;;;;;;;;;;;;-2.30;100.00;94955.50;5014749;28;19978;-52
2020/12/08 06:23:44;;;;;;;;;;;;;;;-2.29;100.00;94956.31;5043077;28;20011;-49
2020/12/08 06:26:11;;;;;;;;;;;;;;;-2.29;100.00;94957.16;5033353;28;19978;-48
2020/12/08 06:28:38;;;;;;;;;;;;;;;-2.28;100.00;94953.63;5061496;28;19939;-50
2020/12/08 06:31:05;;;;;;;;;;;;;;;-2.33;100.00;94963.44;5011765;28;19947;-52
2020/12/08 06:33:32;;;;;;;;;;;;;;;-2.36;100.00;94961.06;5046684;28;20312;-50
2020/12/08 06:36:00;;;;;;;;;;;;;;;-2.40;100.00;94959.63;5047389;28;19943;-54
2020/12/08 06:38:26;;;;;;;;;;;;;;;-2.49;100.00;94953.31;5042530;28;20401;-47
2020/12/08 06:40:53;;;;;;;;;;;;;;;-2.40;100.00;94954.47;5042245;28;19940;-49
2020/12/08 06:43:22;;;;;;;;;;;;;;;-2.45;100.00;94946.19;5005023;28;19983;-50
2020/12/08 06:45:48;;;;;;;;;;;;;;;-2.34;100.00;94941.16;5060275;28;19928;-51
2020/12/08 06:48:16;;;;;;;;;;;;;;;-2.28;100.00;94955.38;5028710;28;19942;-50
2020/12/08 06:50:43;;;;;;;;;;;;;;;-2.12;100.00;94950.84;5067331;28;19978;-47
2020/12/08 06:53:11;;;;;;;;;;;;;;;-2.10;100.00;94958.47;5036299;28;19925;-49
2020/12/08 06:55:44;;;;;;;;;;;;;;;-2.04;100.00;94963.22;5062869;28;20007;-48
2020/12/08 06:58:10;;;;;;;;;;;;;;;-2.08;100.00;94951.44;5033777;28;19928;-50
2020/12/08 07:00:38;;;;;;;;;;;;;;;-1.94;100.00;94953.91;5061304;28;19978;-51
2020/12/08 07:03:05;;;;;;;;;;;;;;;-2.03;100.00;94955.38;5028717;28;19956;-53
2020/12/08 07:05:32;;;;;;;;;;;;;;;-2.03;100.00;94954.53;5069584;22;20010;-49
2020/12/08 07:07:59;;;;;;;;;;;;;;;-2.00;100.00;94949.97;5053047;28;19946;-51
2020/12/08 07:10:26;;;;;;;;;;;;;;;-1.98;100.00;94958.47;5087836;28;19966;-50
2020/12/08 07:12:53;;;;;;;;;;;;;;;-2.03;100.00;94951.94;5030944;28;19931;-51
2020/12/08 07:15:21;;;;;;;;;;;;;;;-1.96;100.00;94951.44;5087333;28;19924;-48
2020/12/08 07:17:55;;;;;;;;;;;;;;;-2.01;100.00;94955.25;5048803;28;20011;-58
2020/12/08 07:20:23;;;;;;;;;;;;;;;-1.97;100.00;94951.53;5070256;28;19928;-53
2020/12/08 07:22:50;;;;;;;;;;;;;;;-2.01;100.00;94944.94;5062931;28;20416;-51
2020/12/08 07:25:17;;;;;;;;;;;;;;;-1.98;100.00;94936.97;5075852;28;19932;-50
2020/12/08 07:27:45;;;;;;;;;;;;;;;-1.94;100.00;94928.06;5074980;28;19964;-51
2020/12/08 07:30:13;;;;;;;;;;;;;;;-1.85;100.00;94927.44;5046852;28;19935;-52
2020/12/08 07:32:39;;;;;;;;;;;;;;;-1.70;100.00;94928.13;5101994;28;19939;-54
2020/12/08 07:35:17;;;;;;;;;;;;;;;-1.65;100.00;94936.38;5065897;28;19928;-51
2020/12/08 07:37:44;;;;;;;;;;;;;;;-1.65;100.00;94941.56;5104196;28;19924;-52
2020/12/08 07:40:11;;;;;;;;;;;;;;;-1.53;100.00;94940.66;5060960;27;19924;-51
2020/12/08 07:42:38;;;;;;;;;;;;;;;-1.59;100.00;94935.13;5109268;28;19946;-52
2020/12/08 07:45:08;;;;;;;;;;;;;;;-1.61;100.00;94932.66;5055308;28;19924;-53
2020/12/08 07:47:35;;;;;;;;;;;;;;;-1.57;100.00;94938.44;5107658;27;20014;-53
2020/12/08 07:50:02;;;;;;;;;;;;;;;-1.58;100.00;94934.16;5075717;28;19939;-54
2020/12/08 07:52:31;;;;;;;;;;;;;;;-1.58;100.00;94936.75;5106719;28;19961;-53
2020/12/08 07:54:57;;;;;;;;;;;;;;;-1.56;100.00;94935.72;5068745;28;19923;-54
2020/12/08 07:57:24;;;;;;;;;;;;;;;-1.49;100.00;94926.59;5105299;28;19932;-54
2020/12/08 07:59:52;;;;;;;;;;;;;;;-1.45;100.00;94930.59;5062630;28;20507;-48
2020/12/08 08:02:19;;;;;;;;;;;;;;;-1.46;100.00;94938.47;5108842;28;20068;-50
2020/12/08 08:04:45;;;;;;;;;;;;;;;-1.48;100.00;94948.09;5076032;28;22539;-49
2020/12/08 08:07:13;;;;;;;;;;;;;;;-1.35;100.00;94955.81;5108654;28;19963;-50
2020/12/08 08:09:40;;;;;;;;;;;;;;;-1.40;100.00;94956.16;5087080;28;19924;-53
2020/12/08 08:12:07;;;;;;;;;;;;;;;-1.45;100.00;94951.28;5094880;27;19935;-50
2020/12/08 08:14:34;;;;;;;;;;;;;;;-1.41;100.00;94951.91;5107295;28;19951;-51
2020/12/08 08:17:06;;;;;;;;;;;;;;;-1.31;100.00;94939.13;5065901;28;19923;-50
2020/12/08 08:19:33;;;;;;;;;;;;;;;-1.36;100.00;94943.81;5105341;27;20483;-51
2020/12/08 08:22:00;;;;;;;;;;;;;;;-1.34;100.00;94945.38;5067897;28;19930;-51
2020/12/08 08:24:28;;;;;;;;;;;;;;;-1.27;100.00;94945.75;5105674;28;19946;-53
2020/12/08 08:26:55;;;;;;;;;;;;;;;-1.21;100.00;94956.47;5071056;28;19976;-49
2020/12/08 08:29:23;;;;;;;;;;;;;;;-1.26;100.00;94957.75;5103179;28;19927;-48
2020/12/08 08:31:49;;;;;;;;;;;;;;;-1.28;100.00;94959.59;5073989;28;20350;-50
2020/12/08 08:34:16;;;;;;;;;;;;;;;-1.26;100.00;94961.16;5102523;28;20359;-51
2020/12/08 08:36:48;;;;;;;;;;;;;;;-1.21;100.00;94964.22;5061863;28;19924;-51
2020/12/08 08:39:15;;;;;;;;;;;;;;;-1.08;100.00;94963.34;5100999;28;20023;-51
2020/12/08 08:41:42;;;;;;;;;;;;;;;-1.10;100.00;94962.63;5068493;28;19973;-48
2020/12/08 08:44:10;;;;;;;;;;;;;;;-0.92;100.00;94970.84;5104561;28;19984;-50
2020/12/08 08:46:38;;;;;;;;;;;;;;;-0.78;100.00;94958.53;5074213;28;20022;-49
2020/12/08 08:49:07;;;;;;;;;;;;;;;-0.62;100.00;94965.16;5102552;28;20396;-49
2020/12/08 08:51:34;;;;;;;;;;;;;;;-0.44;100.00;94950.03;5045139;28;20658;-50
2020/12/08 08:54:01;;;;;;;;;;;;;;;-0.41;100.00;94957.53;5101453;28;19992;-50
2020/12/08 08:56:27;;;;;;;;;;;;;;;-0.47;100.00;94964.03;5086710;28;19924;-48
2020/12/08 08:58:54;;;;;;;;;;;;;;;-0.45;100.00;94936.25;5097943;28;19928;-51
2020/12/08 09:01:22;;;;;;;;;;;;;;;-0.35;100.00;94957.09;5086938;28;20011;-51
2020/12/08 09:03:49;;;;;;;;;;;;;;;-0.10;100.00;94953.50;5078384;28;19930;-48
2020/12/08 09:06:15;;;;;;;;;;;;;;;-0.28;100.00;94948.75;5101861;28;19931;-49
2020/12/08 09:08:42;;;;;;;;;;;;;;;-0.15;100.00;94961.59;5067028;28;19931;-53
2020/12/08 09:11:10;;;;;;;;;;;;;;;-0.30;100.00;94957.59;5090723;28;19924;-50
2020/12/08 09:13:37;;;;;;;;;;;;;;;-0.34;100.00;94959.59;5061919;28;19931;-51
2020/12/08 09:16:05;;;;;;;;;;;;;;;-0.33;100.00;94947.47;5107345;28;19931;-55
2020/12/08 09:18:32;;;;;;;;;;;;;;;-0.30;100.00;94965.34;5069726;28;19932;-50
2020/12/08 09:20:59;;;;;;;;;;;;;;;-0.39;100.00;94955.69;5103965;28;19932;-57
2020/12/08 09:23:26;;;;;;;;;;;;;;;-0.26;100.00;94959.81;5071814;28;19930;-50
2020/12/08 09:25:54;;;;;;;;;;;;;;;-0.17;100.00;94947.94;5106534;28;19932;-50
2020/12/08 09:28:21;;;;;;;;;;;;;;;-0.17;100.00;94945.38;5035950;28;20409;-54
2020/12/08 09:30:49;;;;;;;;;;;;;;;-0.21;100.00;94935.34;5103312;28;19928;-50
2020/12/08 09:33:15;;;;;;;;;;;;;;;-0.09;100.00;94942.19;5072256;28;19928;-49
2020/12/08 09:35:43;;;;;;;;;;;;;;;-0.12;100.00;94937.22;5099569;28;19925;-48
2020/12/08 09:38:10;;;;;;;;;;;;;;;-0.13;100.00;94939.00;5069526;28;20443;-48
2020/12/08 09:40:37;;;;;;;;;;;;;;;-0.09;100.00;94949.94;5104349;28;19999;-50
2020/12/08 09:43:05;;;;;;;;;;;;;;;0.01;100.00;94957.84;5102946;28;19927;-51
2020/12/08 09:45:32;;;;;;;;;;;;;;;0.11;100.00;94962.22;5055581;28;19927;-49
2020/12/08 09:47:59;;;;;;;;;;;;;;;0.21;100.00;94954.56;5110138;28;19938;-48
2020/12/08 09:50:26;;;;;;;;;;;;;;;0.21;100.00;94973.50;5068238;28;19931;-50
2020/12/08 09:52:53;;;;;;;;;;;;;;;0.16;100.00;94972.22;5085512;28;19927;-46
2020/12/08 09:55:20;;;;;;;;;;;;;;;0.14;100.00;94963.75;5076474;28;19935;-55
2020/12/08 09:57:47;;;;;;;;;;;;;;;0.30;100.00;94958.19;5106680;28;19930;-52
2020/12/08 10:00:14;;;;;;;;;;;;;;;0.35;100.00;94953.47;5064234;28;20019;-51
2020/12/08 10:02:41;;;;;;;;;;;;;;;0.28;100.00;94944.53;5102759;27;19924;-52
2020/12/08 10:05:08;;;;;;;;;;;;;;;0.15;100.00;94942.88;5070738;27;19959;-50
2020/12/08 10:07:35;;;;;;;;;;;;;;;0.30;100.00;94940.84;5107269;28;20381;-54
2020/12/08 10:10:03;;;;;;;;;;;;;;;0.40;100.00;94935.78;5074382;28;19954;-51
2020/12/08 10:12:31;;;;;;;;;;;;;;;0.53;100.00;94926.09;5110070;27;19947;-51
2020/12/08 10:14:58;;;;;;;;;;;;;;;0.52;100.00;94921.00;5073183;28;21053;-50
2020/12/08 10:17:25;;;;;;;;;;;;;;;0.39;100.00;94923.78;5108346;28;19923;-55
2020/12/08 10:19:52;;;;;;;;;;;;;;;0.66;100.00;94919.00;5072258;28;19928;-53
2020/12/08 10:22:20;;;;;;;;;;;;;;;0.83;100.00;94909.88;5104443;28;19949;-51
2020/12/08 10:24:47;;;;;;;;;;;;;;;0.76;100.00;94910.47;5111196;28;20064;-52
2020/12/08 10:27:15;;;;;;;;;;;;;;;0.78;100.00;94903.38;5047809;28;19923;-53
2020/12/08 10:29:42;;;;;;;;;;;;;;;1.03;100.00;94902.22;5105907;28;19927;-51
2020/12/08 10:32:09;;;;;;;;;;;;;;;1.06;100.00;94907.16;5080808;28;19923;-50
2020/12/08 10:34:36;;;;;;;;;;;;;;;1.24;100.00;94903.06;5106407;28;19932;-54
2020/12/08 10:37:02;;;;;;;;;;;;;;;1.02;100.00;94911.78;5060925;28;19928;-53
2020/12/08 10:39:29;;;;;;;;;;;;;;;1.12;100.00;94907.47;5103847;28;19924;-52
2020/12/08 10:41:56;;;;;;;;;;;;;;;1.00;100.00;94913.69;5066163;28;19924;-51
2020/12/08 10:44:24;;;;;;;;;;;;;;;0.89;100.00;94918.91;5109878;28;19927;-52
2020/12/08 10:46:51;;;;;;;;;;;;;;;0.90;100.00;94913.59;5067736;28;20348;-51
2020/12/08 10:49:18;;;;;;;;;;;;;;;0.93;100.00;94900.38;5109225;28;19924;-55
2020/12/08 10:51:45;;;;;;;;;;;;;;;0.82;100.00;94902.19;5077364;28;19967;-51
2020/12/08 10:54:13;;;;;;;;;;;;;;;0.89;100.00;94896.38;5103904;28;19970;-51
2020/12/08 10:56:39;;;;;;;;;;;;;;;0.99;100.00;94887.84;5072948;28;19938;-48
2020/12/08 10:59:06;;;;;;;;;;;;;;;0.92;100.00;94884.94;5109046;28;20007;-56
2020/12/08 11:01:39;;;;;;;;;;;;;;;0.91;100.00;94884.09;5065536;27;20770;-49
2020/12/08 11:04:06;;;;;;;;;;;;;;;1.10;100.00;94883.44;5109422;28;19938;-51
2020/12/08 11:06:33;;;;;;;;;;;;;;;1.29;100.00;94877.53;5075712;28;19931;-53
2020/12/08 11:08:59;;;;;;;;;;;;;;;1.51;100.00;94879.16;5106009;28;20454;-52
2020/12/08 11:11:27;;;;;;;;;;;;;;;1.72;100.00;94870.53;5104993;28;19981;-49
2020/12/08 11:13:54;;;;;;;;;;;;;;;1.93;100.00;94871.31;5054734;28;19931;-51
2020/12/08 11:16:22;;;;;;;;;;;;;;;1.97;100.00;94867.50;5107886;28;19982;-51
2020/12/08 11:18:49;;;;;;;;;;;;;;;1.92;100.00;94864.44;5041545;28;20393;-49
2020/12/08 11:21:22;;;;;;;;;;;;;;;2.06;100.00;94869.28;5091974;28;19959;-54
2020/12/08 11:23:49;;;;;;;;;;;;;;;2.01;99.34;94868.06;5076716;28;19928;-52
2020/12/08 11:26:15;;;;;;;;;;;;;;;1.85;99.81;94869.34;5098024;28;20363;-50
2020/12/08 11:28:42;;;;;;;;;;;;;;;1.88;100.00;94860.47;5077592;28;20389;-56
2020/12/08 11:31:09;;;;;;;;;;;;;;;1.87;100.00;94869.22;5099335;28;19923;-48
2020/12/08 11:33:42;;;;;;;;;;;;;;;1.99;99.60;94859.56;5057239;28;19930;-51
2020/12/08 11:36:09;;;;;;;;;;;;;;;2.32;98.07;94858.41;5086435;28;20304;-54
2020/12/08 11:38:36;;;;;;;;;;;;;;;2.50;97.48;94858.59;5052022;28;19936;-52
2020/12/08 11:41:03;;;;;;;;;;;;;;;2.46;96.97;94847.63;5107311;27;19931;-54
2020/12/08 11:43:31;;;;;;;;;;;;;;;2.34;97.15;94846.09;5069258;28;19957;-50
2020/12/08 11:45:58;;;;;;;;;;;;;;;2.18;98.19;94844.03;5100644;28;20003;-51
2020/12/08 11:48:25;;;;;;;;;;;;;;;2.22;98.75;94836.78;5067785;28;20817;-49
2020/12/08 11:50:52;;;;;;;;;;;;;;;2.22;97.40;94834.16;5096425;28;19923;-56
2020/12/08 11:53:21;;;;;;;;;;;;;;;2.26;97.80;94828.56;5097478;28;19923;-53
2020/12/08 11:55:48;;;;;;;;;;;;;;;2.18;97.59;94823.22;5098776;28;19931;-54
2020/12/08 11:58:14;;;;;;;;;;;;;;;2.17;97.90;94826.78;5092273;28;19969;-50
2020/12/08 12:00:42;;;;;;;;;;;;;;;2.08;98.14;94827.56;5077113;28;19946;-53
2020/12/08 12:03:09;;;;;;;;;;;;;;;2.22;98.10;94826.38;5103554;28;20359;-50
2020/12/08 12:05:37;;;;;;;;;;;;;;;2.24;97.21;94825.28;5067148;28;20044;-50
2020/12/08 12:08:05;;;;;;;;;;;;;;;2.20;95.42;94817.88;5106966;28;20289;-50
2020/12/08 12:10:33;;;;;;;;;;;;;;;2.22;94.87;94814.19;5064603;28;19931;-48
2020/12/08 12:13:00;;;;;;;;;;;;;;;2.28;95.09;94810.25;5104217;27;20401;-46
2020/12/08 12:15:27;;;;;;;;;;;;;;;2.20;95.70;94804.88;5063869;28;20386;-53
2020/12/08 12:17:53;;;;;;;;;;;;;;;2.29;95.92;94812.69;5106028;28;19924;-47
2020/12/08 12:20:21;;;;;;;;;;;;;;;2.36;93.80;94797.38;5056658;28;19931;-51
2020/12/08 12:22:47;;;;;;;;;;;;;;;2.36;94.48;94799.97;5096855;28;20397;-51
2020/12/08 12:25:14;;;;;;;;;;;;;;;2.30;94.35;94805.72;5072095;28;19970;-44
2020/12/08 12:27:42;;;;;;;;;;;;;;;2.22;95.32;94798.59;5103548;28;19946;-49
2020/12/08 12:30:13;;;;;;;;;;;;;;;2.24;95.97;94795.88;5057029;28;19924;-48
2020/12/08 12:32:40;;;;;;;;;;;;;;;2.23;96.85;94789.81;5108136;28;20401;-51
2020/12/08 12:35:07;;;;;;;;;;;;;;;2.22;97.00;94790.78;5071442;28;19923;-48
2020/12/08 12:37:34;;;;;;;;;;;;;;;2.20;96.59;94784.88;5098845;28;19978;-48
2020/12/08 12:40:00;;;;;;;;;;;;;;;2.26;96.49;94780.94;5094874;28;19924;-47
2020/12/08 12:42:27;;;;;;;;;;;;;;;2.26;96.15;94780.94;5069196;28;20475;-47
2020/12/08 12:44:57;;;;;;;;;;;;;;;2.29;96.11;94780.66;5103961;28;19969;-53